KCGI

Cape Girardeau Regional Airport

Cape Girardeau, Missouri, USA
KCGI 190520Z 1906/2006 VRB02KT P6SM SCT200 FM191400 22005KT P6SM OVC100 FM191900 23008KT P6SM -RA OVC050 FM192100 24007KT 6SM -SHRA SCT015 OVC030 FM200000 23005KT 4SM -SHRA BR OVC010
Issued Valid From Valid To
Oct-19 @ 05:20 UTC
(4 hours ago)
Oct-19 @ 06:00 UTC
(4 hours ago)
Oct-20 @ 06:00 UTC
(in 20 hours)
Oct-19 @ 06:00 to Oct-19 @ 14:00
KCGI 190520Z 1906/2006 VRB02KT P6SM SCT200
Wind Visibility Clouds
Variable at 2 knots Greater than 6 miles
  • Scattered at 20,000' AGL
From Oct-19 @ 14:00 to Oct-19 @ 19:00
FM191400 22005KT P6SM OVC100
Wind Visibility Clouds
220° at 5 knots Greater than 6 miles
  • Overcast at 10,000' AGL
From Oct-19 @ 19:00 to Oct-19 @ 21:00
FM191900 23008KT P6SM -RA OVC050
Wind Visibility Clouds Conditions
230° at 8 knots Greater than 6 miles
  • Overcast at 5,000' AGL
  • Light Rain
From Oct-19 @ 21:00 to Oct-20 @ 00:00
FM192100 24007KT 6SM -SHRA SCT015 OVC030
Wind Visibility Clouds Conditions
240° at 7 knots 6 miles
  • Scattered at 1,500' AGL
  • Overcast at 3,000' AGL
  • Light Rain
From Oct-20 @ 00:00 to Oct-20 @ 06:00
FM200000 23005KT 4SM -SHRA BR OVC010
Wind Visibility Clouds Conditions
230° at 5 knots 4 miles
  • Overcast at 1,000' AGL
  • Light Rain
  • Mist
KCGI 190520Z 1906/2006 VRB02KT P6SM SCT200 FM191400 22005KT P6SM OVC100 FM191900 23008KT P6SM -RA OVC050 FM192100 24007KT 6SM -SHRA SCT015 OVC030 FM200000 23005KT 4SM -SHRA BR OVC010
Issued Oct-19 @ 05:20 UTC
(4 hours ago)
Valid From Oct-19 @ 06:00 UTC
(4 hours ago)
Valid To Oct-20 @ 06:00 UTC
(in 20 hours)
Oct-19 @ 06:00 - Oct-19 @ 14:00
Wind Visibility
Variable at 2 knots Greater than 6 miles
Clouds
  • Scattered at 20,000' AGL
From Oct-19 @ 14:00 - Oct-19 @ 19:00
Wind Visibility
220° at 5 knots Greater than 6 miles
Clouds
  • Overcast at 10,000' AGL
From Oct-19 @ 19:00 - Oct-19 @ 21:00
Wind Visibility
230° at 8 knots Greater than 6 miles
Clouds
  • Overcast at 5,000' AGL
Conditions
  • Light Rain
From Oct-19 @ 21:00 - Oct-20 @ 00:00
Wind Visibility
240° at 7 knots 6 miles
Clouds
  • Scattered at 1,500' AGL
  • Overcast at 3,000' AGL
Conditions
  • Light Rain
From Oct-20 @ 00:00 - Oct-20 @ 06:00
Wind Visibility
230° at 5 knots 4 miles
Clouds
  • Overcast at 1,000' AGL
Conditions
  • Light Rain
  • Mist